createdAt,value
2022-09-07T00:01:07.397Z,99.90
2022-09-07T00:03:35.329Z,99.90
2022-09-07T00:06:10.913Z,99.90
2022-09-07T00:08:40.449Z,99.90
2022-09-07T00:11:15.137Z,99.90
2022-09-07T00:13:45.544Z,99.90
2022-09-07T00:16:18.811Z,99.90
2022-09-07T00:18:46.625Z,99.90
2022-09-07T00:21:17.672Z,99.90
2022-09-07T00:23:48.286Z,99.90
2022-09-07T00:26:21.178Z,99.90
2022-09-07T00:28:50.046Z,99.90
2022-09-07T00:31:23.021Z,99.90
2022-09-07T00:33:53.313Z,99.90
2022-09-07T00:36:23.061Z,99.90
2022-09-07T00:38:51.155Z,99.90
2022-09-07T00:41:21.416Z,99.90
2022-09-07T00:43:59.589Z,99.90
2022-09-07T00:46:34.115Z,99.90
2022-09-07T00:49:15.341Z,99.90
2022-09-07T00:52:02.696Z,99.90
2022-09-07T00:54:47.081Z,99.90
2022-09-07T00:57:15.037Z,99.90
2022-09-07T00:59:50.841Z,99.90
2022-09-07T01:02:20.147Z,99.90
2022-09-07T01:04:53.418Z,99.90
2022-09-07T01:07:20.667Z,99.90
2022-09-07T01:09:48.165Z,99.90
2022-09-07T01:12:15.141Z,99.90
2022-09-07T01:14:51.562Z,99.90
2022-09-07T01:17:33.074Z,99.90
2022-09-07T01:20:54.058Z,99.90
2022-09-07T01:23:53.474Z,99.90
2022-09-07T01:27:04.135Z,99.90
2022-09-07T01:29:50.960Z,99.90
2022-09-07T01:33:04.490Z,99.90
2022-09-07T01:36:06.839Z,99.90
2022-09-07T01:38:53.898Z,99.90
2022-09-07T01:41:49.134Z,99.90
2022-09-07T01:44:34.182Z,99.90
2022-09-07T01:47:37.014Z,99.90
2022-09-07T01:50:21.049Z,99.90
2022-09-07T01:53:00.183Z,99.90
2022-09-07T01:56:07.863Z,99.90
2022-09-07T01:58:47.936Z,99.90
2022-09-07T02:01:35.643Z,99.90
2022-09-07T02:04:17.219Z,99.90
2022-09-07T02:07:09.755Z,99.90
2022-09-07T02:10:10.255Z,99.90
2022-09-07T02:12:55.435Z,99.90
2022-09-07T02:15:51.786Z,99.90
2022-09-07T02:18:25.739Z,99.90
2022-09-07T02:20:59.332Z,99.90
2022-09-07T02:23:37.411Z,99.90
2022-09-07T02:26:12.823Z,99.90
2022-09-07T02:28:40.621Z,99.90
2022-09-07T02:31:08.245Z,99.90
2022-09-07T02:33:35.667Z,99.90
2022-09-07T02:36:05.093Z,99.90
2022-09-07T02:38:35.031Z,99.90
2022-09-07T02:41:04.368Z,99.90
2022-09-07T02:43:33.222Z,99.90
2022-09-07T02:46:58.310Z,99.90
2022-09-07T02:50:16.244Z,99.90
2022-09-07T02:53:28.358Z,99.90
2022-09-07T02:56:50.910Z,99.90
2022-09-07T03:00:10.648Z,99.90
2022-09-07T03:03:21.311Z,99.90
2022-09-07T03:06:09.628Z,99.90
2022-09-07T03:08:49.096Z,99.90
2022-09-07T03:11:17.738Z,99.90
2022-09-07T03:13:44.900Z,99.90
2022-09-07T03:16:16.177Z,99.90
2022-09-07T03:18:44.424Z,99.90
2022-09-07T03:21:11.599Z,99.90
2022-09-07T03:23:38.791Z,99.90
2022-09-07T03:26:06.184Z,99.90
2022-09-07T03:28:33.167Z,99.90
2022-09-07T03:31:02.788Z,99.90
2022-09-07T03:33:29.860Z,99.90
2022-09-07T03:36:02.285Z,99.90
2022-09-07T03:38:30.960Z,99.90
2022-09-07T03:41:06.944Z,99.90
2022-09-07T03:43:34.851Z,99.90
2022-09-07T03:46:07.080Z,99.90
2022-09-07T03:48:36.557Z,99.90
2022-09-07T03:51:10.632Z,99.90
2022-09-07T03:53:43.916Z,99.90
2022-09-07T03:56:22.981Z,99.90
2022-09-07T03:58:51.444Z,99.90
2022-09-07T04:01:26.164Z,99.90
2022-09-07T04:04:01.798Z,99.90
2022-09-07T04:06:30.822Z,99.90
2022-09-07T04:09:03.997Z,99.90
2022-09-07T04:11:31.953Z,99.90
2022-09-07T04:13:59.405Z,99.90
2022-09-07T04:16:28.172Z,99.90
2022-09-07T04:18:55.565Z,99.90
2022-09-07T04:21:24.367Z,99.90
2022-09-07T04:23:52.841Z,99.90
2022-09-07T04:26:24.313Z,99.90
2022-09-07T04:28:52.290Z,99.90
2022-09-07T04:31:21.025Z,99.90
2022-09-07T04:33:51.201Z,99.90
2022-09-07T04:36:20.612Z,99.90
2022-09-07T04:38:57.642Z,99.90
2022-09-07T04:41:26.039Z,99.90
2022-09-07T04:43:58.086Z,99.90
2022-09-07T04:46:35.418Z,99.90
2022-09-07T04:49:10.315Z,99.90
2022-09-07T04:51:42.462Z,99.90
2022-09-07T04:54:11.403Z,99.90
2022-09-07T04:56:38.506Z,99.90
2022-09-07T04:59:05.526Z,99.90
2022-09-07T05:01:32.645Z,99.90
2022-09-07T05:04:02.199Z,99.90
2022-09-07T05:06:29.590Z,99.90
2022-09-07T05:08:58.643Z,99.90
2022-09-07T05:11:29.736Z,99.90
2022-09-07T05:14:03.367Z,99.90
2022-09-07T05:16:31.998Z,99.90
2022-09-07T05:19:04.594Z,99.90
2022-09-07T05:21:34.899Z,99.90
2022-09-07T05:24:04.078Z,99.90
2022-09-07T05:26:36.307Z,99.90
2022-09-07T05:31:53.359Z,99.90
2022-09-07T05:36:54.839Z,99.90
2022-09-07T05:39:21.789Z,99.90
2022-09-07T05:41:48.745Z,99.90
2022-09-07T05:47:02.761Z,99.90
2022-09-07T05:49:30.583Z,99.90
2022-09-07T05:51:57.493Z,99.90
2022-09-07T05:54:24.376Z,99.90
2022-09-07T05:56:51.364Z,99.90
2022-09-07T05:59:18.283Z,99.90
2022-09-07T06:01:45.247Z,99.90
2022-09-07T06:04:12.216Z,99.90
2022-09-07T06:06:39.094Z,99.90
2022-09-07T06:09:07.073Z,99.90
2022-09-07T06:11:34.145Z,99.90
2022-09-07T06:14:01.219Z,99.90
2022-09-07T06:16:28.840Z,99.90
2022-09-07T06:18:55.791Z,99.90
2022-09-07T06:21:24.541Z,99.90
2022-09-07T06:23:51.936Z,99.90
2022-09-07T06:26:19.805Z,99.90
2022-09-07T06:28:50.817Z,99.90
2022-09-07T06:31:23.605Z,99.90
2022-09-07T06:33:52.497Z,99.90
2022-09-07T06:36:27.643Z,99.90
2022-09-07T06:39:01.309Z,99.90
2022-09-07T06:44:17.853Z,99.90
2022-09-07T06:49:31.900Z,99.90
2022-09-07T06:51:58.849Z,99.90
2022-09-07T06:57:12.826Z,99.90
2022-09-07T06:59:39.861Z,99.90
2022-09-07T07:02:08.064Z,99.90
2022-09-07T07:04:40.318Z,99.90
2022-09-07T07:07:12.710Z,99.90
2022-09-07T07:09:41.509Z,99.90
2022-09-07T07:12:09.709Z,99.90
2022-09-07T07:14:38.678Z,99.90
2022-09-07T07:17:06.825Z,99.90
2022-09-07T07:19:33.809Z,99.90
2022-09-07T07:24:47.749Z,99.90
2022-09-07T07:27:14.874Z,99.90
2022-09-07T07:29:41.833Z,99.90
2022-09-07T07:32:08.774Z,99.90
2022-09-07T07:34:35.697Z,99.90
2022-09-07T07:37:02.591Z,99.90
2022-09-07T07:42:16.603Z,99.90
2022-09-07T07:44:43.654Z,99.90
2022-09-07T07:47:10.933Z,99.90
2022-09-07T07:49:37.819Z,99.90
2022-09-07T07:54:53.075Z,99.90
2022-09-07T07:57:20.290Z,99.90
2022-09-07T07:59:47.180Z,99.90
2022-09-07T08:03:46.126Z,99.90
2022-09-07T08:06:21.833Z,99.90
2022-09-07T08:08:48.886Z,99.90
2022-09-07T08:11:20.142Z,99.90
2022-09-07T08:13:50.434Z,99.90
2022-09-07T08:16:18.866Z,97.70
2022-09-07T08:18:47.111Z,96.50
2022-09-07T08:21:16.579Z,95.70
2022-09-07T08:23:43.996Z,93.70
2022-09-07T08:26:11.555Z,90.70
2022-09-07T08:28:43.756Z,89.00
2022-09-07T08:31:16.038Z,87.80
2022-09-07T08:33:43.844Z,86.60
2022-09-07T08:36:14.351Z,83.90
2022-09-07T08:38:41.791Z,85.80
2022-09-07T08:41:48.704Z,86.00
2022-09-07T08:44:44.119Z,86.10
2022-09-07T08:47:46.841Z,82.00
2022-09-07T08:51:04.419Z,81.70
2022-09-07T08:53:31.850Z,78.80
2022-09-07T08:56:10.129Z,74.60
2022-09-07T08:58:55.643Z,72.90
2022-09-07T09:01:37.658Z,71.90
2022-09-07T09:04:24.478Z,69.60
2022-09-07T09:07:25.307Z,67.70
2022-09-07T09:10:19.705Z,66.00
2022-09-07T09:13:18.207Z,63.80
2022-09-07T09:16:08.869Z,61.10
2022-09-07T09:19:18.336Z,60.20
2022-09-07T09:21:45.817Z,59.10
2022-09-07T09:24:19.992Z,58.50
2022-09-07T09:26:57.018Z,58.20
2022-09-07T09:29:24.304Z,57.10
2022-09-07T09:31:51.219Z,57.40
2022-09-07T09:34:23.917Z,57.00
2022-09-07T09:36:56.669Z,56.90
2022-09-07T09:39:37.432Z,56.80
2022-09-07T09:42:23.724Z,55.50
2022-09-07T09:44:51.576Z,53.80
2022-09-07T09:47:36.005Z,53.00
2022-09-07T09:53:52.725Z,52.00
2022-09-07T09:56:19.782Z,51.20
2022-09-07T10:01:35.988Z,48.10
2022-09-07T10:04:25.177Z,47.70
2022-09-07T10:07:21.889Z,48.00
2022-09-07T10:09:56.220Z,48.10
2022-09-07T10:12:29.833Z,48.10
2022-09-07T10:14:57.752Z,47.20
2022-09-07T10:17:49.641Z,47.00
2022-09-07T10:20:16.377Z,48.20
2022-09-07T10:22:53.428Z,48.10
2022-09-07T10:25:40.752Z,48.70
2022-09-07T10:28:12.497Z,49.20
2022-09-07T10:31:31.723Z,48.70
2022-09-07T10:34:28.301Z,47.40
2022-09-07T10:37:13.537Z,46.80
2022-09-07T10:40:06.470Z,45.90
2022-09-07T10:46:59.376Z,46.00
2022-09-07T10:50:22.387Z,44.70
2022-09-07T10:53:40.289Z,43.90
2022-09-07T10:56:30.647Z,46.30
2022-09-07T10:59:23.075Z,47.40
2022-09-07T11:02:27.351Z,49.10
2022-09-07T11:05:57.131Z,51.60
2022-09-07T11:09:26.865Z,52.20
2022-09-07T11:12:14.939Z,48.10
2022-09-07T11:14:54.054Z,49.00
2022-09-07T11:17:29.068Z,50.90
2022-09-07T11:20:23.951Z,52.20
2022-09-07T11:23:06.672Z,53.50
2022-09-07T11:26:17.406Z,54.70
2022-09-07T11:29:35.963Z,55.70
2022-09-07T11:32:20.459Z,56.90
2022-09-07T11:35:16.403Z,58.70
2022-09-07T11:37:59.456Z,59.60
2022-09-07T11:40:58.501Z,56.20
2022-09-07T11:43:36.910Z,51.20
2022-09-07T11:46:32.496Z,49.00
2022-09-07T11:48:59.778Z,46.40
2022-09-07T11:52:08.743Z,44.50
2022-09-07T11:55:20.460Z,41.90
2022-09-07T11:58:49.127Z,42.30
2022-09-07T12:02:11.278Z,44.40
2022-09-07T12:05:20.535Z,44.60
2022-09-07T12:08:05.060Z,45.80
2022-09-07T12:11:18.175Z,46.90
2022-09-07T12:14:31.747Z,46.30
2022-09-07T12:17:30.948Z,47.90
2022-09-07T12:20:39.351Z,50.60
2022-09-07T12:23:16.484Z,50.70
2022-09-07T12:25:52.207Z,48.40
2022-09-07T12:28:25.142Z,46.80
2022-09-07T12:31:12.666Z,44.70
2022-09-07T12:33:40.940Z,44.50
2022-09-07T12:36:28.075Z,44.70
2022-09-07T12:39:28.847Z,43.20
2022-09-07T12:42:32.957Z,42.20
2022-09-07T12:45:28.798Z,40.10
2022-09-07T12:48:04.342Z,40.20
2022-09-07T12:50:59.941Z,42.50
2022-09-07T12:54:35.644Z,45.70
2022-09-07T12:57:33.516Z,48.90
2022-09-07T13:01:12.343Z,51.20
2022-09-07T13:04:04.193Z,52.70
2022-09-07T13:07:16.477Z,52.90
2022-09-07T13:10:04.276Z,52.00
2022-09-07T13:12:54.236Z,49.70
2022-09-07T13:15:48.916Z,47.20
2022-09-07T13:18:28.481Z,47.00
2022-09-07T13:21:07.364Z,48.60
2022-09-07T13:24:48.471Z,48.60
2022-09-07T13:27:11.332Z,47.40
2022-09-07T13:29:41.610Z,48.70
2022-09-07T13:35:26.183Z,47.60
2022-09-07T13:38:02.629Z,44.40
2022-09-07T13:40:45.098Z,44.10
2022-09-07T13:43:24.929Z,45.10
2022-09-07T13:45:54.542Z,44.90
2022-09-07T13:48:51.230Z,45.80
2022-09-07T13:51:41.774Z,47.30
2022-09-07T13:54:38.842Z,49.00
2022-09-07T13:57:53.517Z,50.40
2022-09-07T14:00:20.558Z,50.60
2022-09-07T14:02:56.518Z,49.70
2022-09-07T14:05:24.219Z,46.60
2022-09-07T14:07:51.210Z,43.30
2022-09-07T14:10:25.216Z,44.10
2022-09-07T14:13:12.474Z,44.00
2022-09-07T14:15:45.762Z,42.00
2022-09-07T14:18:17.922Z,41.10
2022-09-07T14:20:49.621Z,39.50
2022-09-07T14:23:30.543Z,39.00
2022-09-07T14:26:22.921Z,39.40
2022-09-07T14:28:55.438Z,39.70
2022-09-07T14:31:26.043Z,40.50
2022-09-07T14:34:00.350Z,41.00
2022-09-07T14:36:44.564Z,42.50
2022-09-07T14:39:16.504Z,43.70
2022-09-07T14:41:44.886Z,43.20
2022-09-07T14:44:36.639Z,42.30
2022-09-07T14:47:29.768Z,43.40
2022-09-07T14:50:06.774Z,44.60
2022-09-07T14:53:33.154Z,43.00
2022-09-07T14:55:42.365Z,43.00
2022-09-07T14:58:15.066Z,45.20
2022-09-07T15:01:37.267Z,45.20
2022-09-07T15:04:02.621Z,46.00
2022-09-07T15:09:38.279Z,46.70
2022-09-07T15:12:30.002Z,48.80
2022-09-07T15:15:26.945Z,49.50
2022-09-07T15:18:03.103Z,50.90
2022-09-07T15:20:44.928Z,51.80
2022-09-07T15:23:20.071Z,53.30
2022-09-07T15:25:53.614Z,54.00
2022-09-07T15:34:19.875Z,54.30
2022-09-07T15:36:50.955Z,52.50
2022-09-07T15:39:25.248Z,52.70
2022-09-07T15:41:52.758Z,52.90
2022-09-07T15:44:24.923Z,51.60
2022-09-07T15:49:47.378Z,48.30
2022-09-07T15:52:17.510Z,46.90
2022-09-07T15:54:44.490Z,46.40
2022-09-07T15:59:58.626Z,46.10
2022-09-07T16:05:13.296Z,45.10
2022-09-07T16:10:31.076Z,46.40
2022-09-07T16:13:01.166Z,46.30
2022-09-07T16:15:29.108Z,47.00
2022-09-07T16:17:56.077Z,47.40
2022-09-07T16:20:23.068Z,47.60
2022-09-07T16:25:38.121Z,47.00
2022-09-07T16:28:06.086Z,47.40
2022-09-07T16:30:33.603Z,46.90
2022-09-07T16:33:00.571Z,46.90
2022-09-07T16:35:27.464Z,46.70
2022-09-07T16:40:41.978Z,46.50
2022-09-07T16:43:09.804Z,47.30
2022-09-07T16:48:24.053Z,48.40
2022-09-07T16:51:00.396Z,49.00
2022-09-07T16:53:35.837Z,49.40
2022-09-07T16:56:08.465Z,50.00
2022-09-07T16:58:41.041Z,50.70
2022-09-07T17:01:13.404Z,51.40
2022-09-07T17:03:41.525Z,52.10
2022-09-07T17:06:13.233Z,53.00
2022-09-07T17:08:42.172Z,53.70
2022-09-07T17:11:17.589Z,54.50
2022-09-07T17:13:46.537Z,55.40
2022-09-07T17:16:19.778Z,56.40
2022-09-07T17:21:39.518Z,58.40
2022-09-07T17:24:10.457Z,59.50
2022-09-07T17:26:38.358Z,60.60
2022-09-07T17:29:07.085Z,61.70
2022-09-07T17:34:25.352Z,62.70
2022-09-07T17:36:52.207Z,63.80
2022-09-07T17:39:19.656Z,64.60
2022-09-07T17:41:54.289Z,65.20
2022-09-07T17:44:23.143Z,65.80
2022-09-07T17:46:50.733Z,67.80
2022-09-07T17:49:18.120Z,68.30
2022-09-07T17:51:46.454Z,68.90
2022-09-07T17:54:17.400Z,69.50
2022-09-07T17:56:45.845Z,70.80
2022-09-07T18:02:00.884Z,71.20
2022-09-07T18:04:28.741Z,71.80
2022-09-07T18:06:56.087Z,72.60
2022-09-07T18:09:23.438Z,74.20
2022-09-07T18:11:50.830Z,74.40
2022-09-07T18:14:19.431Z,75.00
2022-09-07T18:16:49.999Z,76.20
2022-09-07T18:19:18.835Z,77.00
2022-09-07T18:21:49.493Z,78.20
2022-09-07T18:24:24.025Z,79.20
2022-09-07T18:26:53.854Z,80.30
2022-09-07T18:29:30.103Z,81.10
2022-09-07T18:32:00.725Z,82.20
2022-09-07T18:34:28.901Z,83.00
2022-09-07T18:36:58.026Z,83.60
2022-09-07T18:39:26.916Z,84.10
2022-09-07T18:41:55.249Z,84.00
2022-09-07T18:47:14.313Z,83.90
2022-09-07T18:49:44.590Z,83.90
2022-09-07T18:54:59.390Z,83.90
2022-09-07T18:57:26.376Z,83.80
2022-09-07T18:59:53.518Z,83.50
2022-09-07T19:02:20.552Z,83.00
2022-09-07T19:07:34.249Z,84.60
2022-09-07T19:10:04.217Z,84.80
2022-09-07T19:12:31.036Z,84.50
2022-09-07T19:14:57.865Z,84.20
2022-09-07T19:17:25.253Z,86.20
2022-09-07T19:19:52.759Z,86.90
2022-09-07T19:22:19.605Z,87.30
2022-09-07T19:24:46.807Z,86.40
2022-09-07T19:27:13.788Z,85.80
2022-09-07T19:29:40.609Z,85.70
2022-09-07T19:32:08.123Z,86.10
2022-09-07T19:34:42.447Z,87.20
2022-09-07T19:37:13.041Z,87.60
2022-09-07T19:39:39.967Z,86.30
2022-09-07T19:42:07.602Z,85.50
2022-09-07T19:44:34.966Z,85.30
2022-09-07T19:47:02.083Z,85.40
2022-09-07T19:49:30.361Z,85.50
2022-09-07T19:51:57.299Z,85.50
2022-09-07T19:54:24.630Z,86.70
2022-09-07T19:56:51.469Z,88.20
2022-09-07T19:59:19.455Z,88.60
2022-09-07T20:01:48.166Z,89.80
2022-09-07T20:04:20.563Z,90.30
2022-09-07T20:06:50.444Z,90.50
2022-09-07T20:09:20.133Z,90.90
2022-09-07T20:11:48.051Z,91.20
2022-09-07T20:14:16.895Z,91.10
2022-09-07T20:16:44.328Z,91.10
2022-09-07T20:19:17.227Z,90.40
2022-09-07T20:21:44.170Z,90.20
2022-09-07T20:24:13.168Z,90.20
2022-09-07T20:26:40.245Z,90.10
2022-09-07T20:31:55.446Z,89.60
2022-09-07T20:34:22.382Z,90.10
2022-09-07T20:36:50.394Z,89.80
2022-09-07T20:39:18.205Z,89.40
2022-09-07T20:41:45.330Z,89.30
2022-09-07T20:44:12.564Z,89.10
2022-09-07T20:46:39.788Z,88.90
2022-09-07T20:49:07.152Z,89.50
2022-09-07T20:51:34.120Z,90.00
2022-09-07T20:54:01.268Z,90.70
2022-09-07T20:56:29.324Z,90.80
2022-09-07T20:59:02.348Z,90.70
2022-09-07T21:01:32.104Z,90.70
2022-09-07T21:04:01.426Z,90.80
2022-09-07T21:06:31.536Z,90.90
2022-09-07T21:08:59.694Z,91.00
2022-09-07T21:11:34.692Z,91.30
2022-09-07T21:14:08.087Z,91.50
2022-09-07T21:16:36.983Z,91.70
2022-09-07T21:19:08.984Z,91.90
2022-09-07T21:21:41.024Z,91.90
2022-09-07T21:24:21.924Z,91.80
2022-09-07T21:26:50.968Z,92.00
2022-09-07T21:29:23.550Z,92.00
2022-09-07T21:31:54.011Z,92.10
2022-09-07T21:34:22.112Z,91.00
2022-09-07T21:36:49.460Z,90.60
2022-09-07T21:39:16.637Z,90.70
2022-09-07T21:41:44.960Z,91.20
2022-09-07T21:44:15.480Z,91.40
2022-09-07T21:46:44.626Z,91.50
2022-09-07T21:49:12.126Z,91.30
2022-09-07T21:51:39.377Z,90.90
2022-09-07T21:54:07.037Z,91.40
2022-09-07T21:56:33.968Z,92.30
2022-09-07T21:59:02.558Z,93.80
2022-09-07T22:01:31.971Z,96.30
2022-09-07T22:04:06.758Z,98.10
2022-09-07T22:06:35.287Z,99.90
2022-09-07T22:09:03.880Z,99.90
2022-09-07T22:11:31.707Z,99.90
2022-09-07T22:14:03.936Z,99.90
2022-09-07T22:16:34.425Z,99.90
2022-09-07T22:19:01.596Z,99.90
2022-09-07T22:21:30.540Z,99.90
2022-09-07T22:24:03.197Z,99.90
2022-09-07T22:26:37.462Z,99.90
2022-09-07T22:29:08.369Z,99.90
2022-09-07T22:31:38.338Z,99.90
2022-09-07T22:34:09.158Z,99.90
2022-09-07T22:36:45.297Z,99.90
2022-09-07T22:39:18.729Z,99.90
2022-09-07T22:41:47.366Z,99.90
2022-09-07T22:44:18.252Z,99.90
2022-09-07T22:46:47.510Z,99.90
2022-09-07T22:49:17.359Z,99.90
2022-09-07T22:51:45.506Z,99.90
2022-09-07T22:54:13.181Z,99.90
2022-09-07T22:56:40.977Z,99.90
2022-09-07T22:59:10.167Z,99.90
2022-09-07T23:01:38.385Z,99.90
2022-09-07T23:04:06.998Z,99.90
2022-09-07T23:06:39.040Z,99.90
2022-09-07T23:09:14.482Z,99.90
2022-09-07T23:11:42.190Z,99.90
2022-09-07T23:14:20.270Z,99.90
2022-09-07T23:16:47.170Z,99.90
2022-09-07T23:19:17.440Z,99.90
2022-09-07T23:21:45.117Z,99.90
2022-09-07T23:24:17.029Z,99.90
2022-09-07T23:26:46.482Z,99.90
2022-09-07T23:29:15.439Z,99.90
2022-09-07T23:31:44.722Z,99.90
2022-09-07T23:34:11.682Z,99.90
2022-09-07T23:36:38.674Z,99.90
2022-09-07T23:39:05.750Z,99.90
2022-09-07T23:41:32.714Z,99.90
2022-09-07T23:44:00.354Z,99.90
2022-09-07T23:46:27.344Z,99.90
2022-09-07T23:48:54.291Z,99.90
2022-09-07T23:51:24.271Z,99.90
2022-09-07T23:53:52.878Z,99.90
2022-09-07T23:56:21.587Z,99.90
2022-09-07T23:58:48.635Z,99.90
